createdAt,value
2023-05-23T00:01:50.830Z,99558.50
2023-05-23T00:04:18.915Z,99551.44
2023-05-23T00:06:50.599Z,99559.84
2023-05-23T00:09:17.830Z,99557.41
2023-05-23T00:11:45.409Z,99566.56
2023-05-23T00:14:16.948Z,99568.75
2023-05-23T00:16:46.321Z,99562.78
2023-05-23T00:19:17.192Z,99576.59
2023-05-23T00:21:50.789Z,99571.41
2023-05-23T00:24:18.693Z,99568.13
2023-05-23T00:26:46.885Z,99564.84
2023-05-23T00:29:16.677Z,99571.59
2023-05-23T00:31:47.704Z,99573.75
2023-05-23T00:34:17.559Z,99568.03
2023-05-23T00:36:47.566Z,99565.84
2023-05-23T00:39:19.551Z,99559.28
2023-05-23T00:41:51.876Z,99566.31
2023-05-23T00:44:20.320Z,99571.16
2023-05-23T00:46:53.634Z,99565.72
2023-05-23T00:49:21.472Z,99570.00
2023-05-23T00:51:52.221Z,99572.44
2023-05-23T00:54:25.380Z,99562.38
2023-05-23T00:56:53.208Z,99568.28
2023-05-23T00:59:21.362Z,99558.25
2023-05-23T01:01:51.109Z,99568.75
2023-05-23T01:04:19.967Z,99570.34
2023-05-23T01:06:49.069Z,99570.84
2023-05-23T01:09:17.967Z,99571.38
2023-05-23T01:12:33.043Z,99577.78
2023-05-23T01:15:08.569Z,99570.44
2023-05-23T01:17:53.127Z,99563.06
2023-05-23T01:20:30.265Z,99569.81
2023-05-23T01:23:02.703Z,99573.03
2023-05-23T01:26:11.824Z,99564.88
2023-05-23T01:28:48.094Z,99573.44
2023-05-23T01:31:17.639Z,99573.16
2023-05-23T01:33:46.293Z,99574.44
2023-05-23T01:36:15.218Z,99579.56
2023-05-23T01:38:42.968Z,99572.78
2023-05-23T01:41:10.116Z,99582.19
2023-05-23T01:43:38.791Z,99577.53
2023-05-23T01:46:07.600Z,99588.63
2023-05-23T01:48:36.350Z,99585.63
2023-05-23T01:51:04.988Z,99587.97
2023-05-23T01:53:32.980Z,99589.31
2023-05-23T01:56:03.346Z,99594.38
2023-05-23T01:58:30.548Z,99594.91
2023-05-23T02:00:57.952Z,99602.47
2023-05-23T02:03:25.189Z,99596.72
2023-05-23T02:05:52.339Z,99605.09
2023-05-23T02:08:19.374Z,99605.56
2023-05-23T02:10:46.395Z,99607.72
2023-05-23T02:13:13.487Z,99604.44
2023-05-23T02:15:40.958Z,99607.38
2023-05-23T02:18:08.830Z,99610.59
2023-05-23T02:20:40.670Z,99608.41
2023-05-23T02:23:08.627Z,99607.00
2023-05-23T02:25:37.365Z,99606.44
2023-05-23T02:28:07.192Z,99608.56
2023-05-23T02:30:34.284Z,99612.81
2023-05-23T02:33:06.631Z,99611.69
2023-05-23T02:35:34.167Z,99619.47
2023-05-23T02:38:01.330Z,99622.66
2023-05-23T02:40:28.395Z,99625.84
2023-05-23T02:42:57.302Z,99625.28
2023-05-23T02:45:24.721Z,99624.97
2023-05-23T02:47:51.785Z,99615.47
2023-05-23T02:50:18.903Z,99622.13
2023-05-23T02:52:46.035Z,99623.47
2023-05-23T02:55:13.109Z,99623.13
2023-05-23T02:57:44.367Z,99622.56
2023-05-23T03:00:12.213Z,99615.78
2023-05-23T03:02:39.664Z,99625.16
2023-05-23T03:05:07.618Z,99621.34
2023-05-23T03:07:34.773Z,99616.41
2023-05-23T03:10:02.118Z,99621.25
2023-05-23T03:12:29.531Z,99620.91
2023-05-23T03:14:56.817Z,99620.34
2023-05-23T03:17:25.977Z,99624.34
2023-05-23T03:19:53.273Z,99638.91
2023-05-23T03:22:20.782Z,99639.94
2023-05-23T03:24:48.024Z,99638.31
2023-05-23T03:27:15.284Z,99642.09
2023-05-23T03:29:42.541Z,99641.25
2023-05-23T03:32:11.996Z,99641.50
2023-05-23T03:34:39.356Z,99639.63
2023-05-23T03:37:06.563Z,99647.47
2023-05-23T03:39:33.983Z,99643.72
2023-05-23T03:42:01.262Z,99645.34
2023-05-23T03:44:28.759Z,99643.25
2023-05-23T03:46:56.834Z,99649.22
2023-05-23T03:49:24.034Z,99649.56
2023-05-23T03:51:51.359Z,99647.91
2023-05-23T03:54:21.364Z,99649.31
2023-05-23T03:56:48.626Z,99655.53
2023-05-23T03:59:15.933Z,99663.38
2023-05-23T04:01:43.244Z,99658.53
2023-05-23T04:04:10.533Z,99665.59
2023-05-23T04:06:38.625Z,99665.34
2023-05-23T04:09:06.660Z,99665.91
2023-05-23T04:11:38.315Z,99662.97
2023-05-23T04:14:05.553Z,99660.88
2023-05-23T04:16:33.499Z,99671.41
2023-05-23T04:19:04.807Z,99671.41
2023-05-23T04:21:32.987Z,99668.97
2023-05-23T04:24:08.303Z,99679.78
2023-05-23T04:26:36.427Z,99675.41
2023-05-23T04:29:05.962Z,99672.13
2023-05-23T04:31:34.262Z,99671.06
2023-05-23T04:34:02.609Z,99670.25
2023-05-23T04:36:30.503Z,99674.59
2023-05-23T04:38:57.639Z,99681.88
2023-05-23T04:41:24.799Z,99684.56
2023-05-23T04:44:06.053Z,99682.69
2023-05-23T04:46:57.173Z,99681.88
2023-05-23T04:49:30.245Z,99686.47
2023-05-23T04:51:57.261Z,99683.75
2023-05-23T04:54:27.399Z,99688.34
2023-05-23T04:56:55.623Z,99680.50
2023-05-23T04:59:24.374Z,99694.00
2023-05-23T05:01:51.482Z,99690.72
2023-05-23T05:04:19.618Z,99691.19
2023-05-23T05:06:48.521Z,99694.16
2023-05-23T05:09:15.553Z,99696.28
2023-05-23T05:11:43.871Z,99700.00
2023-05-23T05:14:10.900Z,99702.16
2023-05-23T05:16:38.194Z,99710.25
2023-05-23T05:19:06.091Z,99705.91
2023-05-23T05:21:33.165Z,99704.28
2023-05-23T05:24:00.221Z,99717.78
2023-05-23T05:26:28.032Z,99718.84
2023-05-23T05:28:55.341Z,99720.47
2023-05-23T05:31:22.593Z,99724.81
2023-05-23T05:33:49.840Z,99718.84
2023-05-23T05:36:16.989Z,99724.81
2023-05-23T05:38:45.730Z,99719.97
2023-05-23T05:41:13.336Z,99736.78
2023-05-23T05:43:50.077Z,99727.38
2023-05-23T05:46:17.146Z,99732.88
2023-05-23T05:48:45.814Z,99740.22
2023-05-23T05:51:13.825Z,99733.28
2023-05-23T05:53:41.879Z,99745.25
2023-05-23T05:56:09.305Z,99745.81
2023-05-23T05:58:36.882Z,99747.94
2023-05-23T06:01:08.205Z,99753.34
2023-05-23T06:03:35.520Z,99755.00
2023-05-23T06:06:02.725Z,99755.56
2023-05-23T06:08:30.192Z,99758.63
2023-05-23T06:10:57.202Z,99764.94
2023-05-23T06:13:25.939Z,99773.13
2023-05-23T06:15:54.487Z,99770.53
2023-05-23T06:18:22.209Z,99784.13
2023-05-23T06:20:51.021Z,99776.34
2023-05-23T06:23:19.666Z,99792.66
2023-05-23T06:25:47.722Z,99791.69
2023-05-23T06:28:14.967Z,99790.97
2023-05-23T06:30:42.322Z,99794.78
2023-05-23T06:33:09.674Z,99794.31
2023-05-23T06:35:36.743Z,99792.19
2023-05-23T06:38:03.769Z,99795.22
2023-05-23T06:40:30.792Z,99790.94
2023-05-23T06:42:57.835Z,99795.63
2023-05-23T06:45:35.078Z,99797.09
2023-05-23T06:48:02.239Z,99799.91
2023-05-23T06:50:31.281Z,99795.38
2023-05-23T06:52:58.296Z,99797.09
2023-05-23T06:55:25.864Z,99800.38
2023-05-23T06:57:53.209Z,99808.59
2023-05-23T07:00:21.829Z,99816.78
2023-05-23T07:03:07.667Z,99816.28
2023-05-23T07:05:37.418Z,99815.78
2023-05-23T07:08:10.788Z,99819.31
2023-05-23T07:10:41.567Z,99829.91
2023-05-23T07:13:21.917Z,99825.06
2023-05-23T07:15:48.931Z,99825.63
2023-05-23T07:18:16.048Z,99836.44
2023-05-23T07:20:43.752Z,99840.56
2023-05-23T07:23:16.167Z,99838.16
2023-05-23T07:25:53.759Z,99844.72
2023-05-23T07:28:29.459Z,99837.81
2023-05-23T07:30:58.255Z,99839.25
2023-05-23T07:33:25.684Z,99843.69
2023-05-23T07:36:00.829Z,99837.00
2023-05-23T07:38:27.863Z,99839.28
2023-05-23T07:41:03.148Z,99846.41
2023-05-23T07:43:37.740Z,99848.91
2023-05-23T07:46:04.941Z,99852.50
2023-05-23T07:48:32.280Z,99844.47
2023-05-23T07:50:59.609Z,99848.56
2023-05-23T07:53:26.800Z,99855.94
2023-05-23T07:55:54.013Z,99847.06
2023-05-23T07:58:23.282Z,99854.41
2023-05-23T08:00:52.635Z,99862.63
2023-05-23T08:03:38.981Z,99848.59
2023-05-23T08:06:11.933Z,99860.91
2023-05-23T08:08:39.511Z,99857.47
2023-05-23T08:11:28.757Z,99859.47
2023-05-23T08:14:01.626Z,99864.44
2023-05-23T08:16:44.431Z,99867.75
2023-05-23T08:19:19.731Z,99865.94
2023-05-23T08:21:47.345Z,99867.84
2023-05-23T08:24:15.233Z,99876.84
2023-05-23T08:26:43.462Z,99883.44
2023-05-23T08:29:12.698Z,99875.84
2023-05-23T08:31:41.360Z,99872.38
2023-05-23T08:34:09.330Z,99880.31
2023-05-23T08:36:39.731Z,99874.88
2023-05-23T08:39:10.617Z,99872.81
2023-05-23T08:41:44.589Z,99871.22
2023-05-23T08:44:13.780Z,99870.22
2023-05-23T08:46:49.853Z,99878.16
2023-05-23T08:49:35.610Z,99881.69
2023-05-23T08:52:03.792Z,99883.94
2023-05-23T08:54:33.858Z,99877.97
2023-05-23T08:57:02.178Z,99874.47
2023-05-23T08:59:31.932Z,99878.28
2023-05-23T09:02:00.686Z,99885.69
2023-05-23T09:04:29.209Z,99893.06
2023-05-23T09:07:01.191Z,99893.34
2023-05-23T09:09:30.066Z,99885.50
2023-05-23T09:11:59.754Z,99885.22
2023-05-23T09:14:30.389Z,99897.16
2023-05-23T09:17:05.420Z,99893.63
2023-05-23T09:19:33.386Z,99896.63
2023-05-23T09:22:13.325Z,99896.88
2023-05-23T09:24:55.018Z,99901.22
2023-05-23T09:27:22.706Z,99909.66
2023-05-23T09:29:50.608Z,99902.63
2023-05-23T09:32:21.003Z,99897.75
2023-05-23T09:35:00.344Z,99906.19
2023-05-23T09:37:36.289Z,99895.34
2023-05-23T09:40:11.736Z,99894.81
2023-05-23T09:42:47.094Z,99892.44
2023-05-23T09:45:16.772Z,99900.09
2023-05-23T09:47:52.092Z,99903.97
2023-05-23T09:50:20.759Z,99891.75
2023-05-23T09:52:48.142Z,99891.25
2023-05-23T09:55:15.612Z,99899.72
2023-05-23T09:57:44.258Z,99900.50
2023-05-23T10:00:15.412Z,99895.06
2023-05-23T10:03:25.205Z,99905.16
2023-05-23T10:05:59.834Z,99901.88
2023-05-23T10:08:43.243Z,99898.06
2023-05-23T10:11:13.151Z,99903.56
2023-05-23T10:13:53.153Z,99891.28
2023-05-23T10:16:40.226Z,99892.34
2023-05-23T10:19:28.723Z,99907.34
2023-05-23T10:22:07.080Z,99895.66
2023-05-23T10:24:35.622Z,99899.72
2023-05-23T10:27:03.958Z,99890.44
2023-05-23T10:29:33.788Z,99897.28
2023-05-23T10:32:02.737Z,99895.38
2023-05-23T10:34:59.679Z,99888.25
2023-05-23T10:38:00.616Z,99892.59
2023-05-23T10:40:43.071Z,99889.84
2023-05-23T10:44:09.905Z,99902.34
2023-05-23T10:46:57.444Z,99902.63
2023-05-23T10:49:46.245Z,99902.63
2023-05-23T10:52:23.706Z,99901.81
2023-05-23T10:54:53.636Z,99898.28
2023-05-23T10:57:23.246Z,99907.31
2023-05-23T10:59:51.894Z,99905.69
2023-05-23T11:02:25.405Z,99907.34
2023-05-23T11:05:24.996Z,99908.41
2023-05-23T11:08:16.171Z,99912.75
2023-05-23T11:10:52.981Z,99914.34
2023-05-23T11:13:23.695Z,99913.00
2023-05-23T11:15:51.291Z,99915.69
2023-05-23T11:18:27.879Z,99919.25
2023-05-23T11:20:55.549Z,99917.63
2023-05-23T11:23:24.091Z,99919.53
2023-05-23T11:25:55.433Z,99920.09
2023-05-23T11:28:24.076Z,99922.00
2023-05-23T11:30:51.373Z,99923.63
2023-05-23T11:33:18.667Z,99925.53
2023-05-23T11:35:48.269Z,99925.53
2023-05-23T11:38:19.507Z,99923.06
2023-05-23T11:40:48.282Z,99927.97
2023-05-23T11:43:17.718Z,99917.84
2023-05-23T11:45:46.875Z,99924.34
2023-05-23T11:48:17.087Z,99922.13
2023-05-23T11:50:46.009Z,99924.28
2023-05-23T11:53:17.353Z,99923.47
2023-05-23T11:55:58.208Z,99923.00
2023-05-23T11:58:37.211Z,99921.38
2023-05-23T12:01:09.911Z,99918.69
2023-05-23T12:03:47.625Z,99925.25
2023-05-23T12:06:25.178Z,99919.31
2023-05-23T12:08:52.763Z,99920.13
2023-05-23T12:11:19.851Z,99913.09
2023-05-23T12:13:46.954Z,99913.63
2023-05-23T12:16:17.501Z,99918.25
2023-05-23T12:18:44.556Z,99907.88
2023-05-23T12:21:12.198Z,99904.88
2023-05-23T12:23:40.383Z,99912.28
2023-05-23T12:26:08.233Z,99906.25
2023-05-23T12:28:45.217Z,99906.75
2023-05-23T12:31:14.234Z,99896.91
2023-05-23T12:33:44.526Z,99899.56
2023-05-23T12:36:15.694Z,99903.38
2023-05-23T12:38:45.511Z,99896.91
2023-05-23T12:41:20.844Z,99897.19
2023-05-23T12:43:52.673Z,99901.16
2023-05-23T12:46:26.048Z,99899.69
2023-05-23T12:48:54.391Z,99910.16
2023-05-23T12:51:21.868Z,99908.81
2023-05-23T12:53:48.962Z,99911.75
2023-05-23T12:56:16.156Z,99913.16
2023-05-23T12:58:43.750Z,99905.81
2023-05-23T13:01:11.256Z,99905.28
2023-05-23T13:03:38.461Z,99912.88
2023-05-23T13:06:06.667Z,99906.97
2023-05-23T13:08:33.651Z,99902.69
2023-05-23T13:11:00.814Z,99897.84
2023-05-23T13:13:27.802Z,99903.41
2023-05-23T13:15:54.963Z,99899.66
2023-05-23T13:18:22.058Z,99898.13
2023-05-23T13:20:49.156Z,99891.06
2023-05-23T13:23:16.420Z,99895.97
2023-05-23T13:25:43.656Z,99891.88
2023-05-23T13:28:10.933Z,99887.25
2023-05-23T13:30:38.040Z,99887.25
2023-05-23T13:33:05.191Z,99890.78
2023-05-23T13:35:32.419Z,99885.31
2023-05-23T13:37:59.553Z,99879.03
2023-05-23T13:40:26.786Z,99877.09
2023-05-23T13:42:54.165Z,99879.34
2023-05-23T13:45:23.133Z,99888.44
2023-05-23T13:47:50.385Z,99880.50
2023-05-23T13:50:17.853Z,99889.00
2023-05-23T13:52:48.199Z,99882.47
2023-05-23T13:55:17.323Z,99890.59
2023-05-23T13:57:44.927Z,99877.88
2023-05-23T14:00:12.928Z,99868.22
2023-05-23T14:02:40.074Z,99878.44
2023-05-23T14:05:08.223Z,99880.72
2023-05-23T14:07:35.439Z,99877.91
2023-05-23T14:10:02.605Z,99881.06
2023-05-23T14:12:29.622Z,99879.94
2023-05-23T14:14:56.599Z,99887.31
2023-05-23T14:17:23.962Z,99886.38
2023-05-23T14:19:51.453Z,99892.03
2023-05-23T14:22:18.474Z,99892.16
2023-05-23T14:24:45.491Z,99890.13
2023-05-23T14:27:12.674Z,99894.28
2023-05-23T14:29:39.748Z,99884.34
2023-05-23T14:32:07.031Z,99898.75
2023-05-23T14:34:34.275Z,99901.94
2023-05-23T14:37:01.458Z,99893.50
2023-05-23T14:39:29.169Z,99886.69
2023-05-23T14:41:56.557Z,99896.81
2023-05-23T14:44:23.800Z,99907.78
2023-05-23T14:46:50.861Z,99892.81
2023-05-23T14:49:17.977Z,99902.63
2023-05-23T14:51:50.374Z,99891.69
2023-05-23T14:54:18.674Z,99900.41
2023-05-23T14:56:46.061Z,99895.41
2023-05-23T14:59:13.189Z,99900.16
2023-05-23T15:01:41.027Z,99894.75
2023-05-23T15:04:09.670Z,99907.19
2023-05-23T15:06:39.078Z,99900.91
2023-05-23T15:09:07.313Z,99905.88
2023-05-23T15:11:35.009Z,99905.41
2023-05-23T15:14:02.250Z,99895.16
2023-05-23T15:16:32.949Z,99895.50
2023-05-23T15:19:00.496Z,99893.53
2023-05-23T15:21:28.141Z,99889.38
2023-05-23T15:23:55.704Z,99896.00
2023-05-23T15:26:23.796Z,99897.94
2023-05-23T15:28:51.199Z,99896.97
2023-05-23T15:31:18.368Z,99900.38
2023-05-23T15:33:45.534Z,99897.19
2023-05-23T15:36:15.474Z,99893.13
2023-05-23T15:38:43.771Z,99890.81
2023-05-23T15:41:16.592Z,99887.63
2023-05-23T15:43:48.448Z,99884.00
2023-05-23T15:46:15.640Z,99882.63
2023-05-23T15:48:42.652Z,99888.63
2023-05-23T15:51:09.757Z,99891.88
2023-05-23T15:53:47.801Z,99895.06
2023-05-23T15:56:23.831Z,99896.59
2023-05-23T15:58:50.980Z,99900.00
2023-05-23T16:01:20.709Z,99896.84
2023-05-23T16:03:48.202Z,99912.34
2023-05-23T16:06:15.518Z,99896.91
2023-05-23T16:08:45.769Z,99902.63
2023-05-23T16:11:12.824Z,99902.69
2023-05-23T16:13:39.925Z,99909.53
2023-05-23T16:16:07.016Z,99913.94
2023-05-23T16:18:34.650Z,99911.84
2023-05-23T16:21:01.811Z,99903.88
2023-05-23T16:23:28.805Z,99912.97
2023-05-23T16:25:55.863Z,99909.41
2023-05-23T16:28:22.995Z,99921.72
2023-05-23T16:30:50.874Z,99911.50
2023-05-23T16:33:17.870Z,99913.56
2023-05-23T16:35:44.855Z,99919.88
2023-05-23T16:38:11.870Z,99915.78
2023-05-23T16:40:39.024Z,99913.03
2023-05-23T16:43:06.081Z,99918.00
2023-05-23T16:45:33.215Z,99917.69
2023-05-23T16:48:01.209Z,99920.66
2023-05-23T16:50:28.311Z,99912.38
2023-05-23T16:52:55.455Z,99905.00
2023-05-23T16:55:22.784Z,99904.53
2023-05-23T16:57:49.802Z,99907.13
2023-05-23T17:00:17.286Z,99907.00
2023-05-23T17:02:44.402Z,99917.41
2023-05-23T17:05:11.570Z,99904.69
2023-05-23T17:07:38.581Z,99909.66
2023-05-23T17:10:06.427Z,99914.03
2023-05-23T17:12:33.425Z,99919.22
2023-05-23T17:15:00.437Z,99922.25
2023-05-23T17:17:27.488Z,99916.38
2023-05-23T17:19:54.943Z,99915.78
2023-05-23T17:22:22.235Z,99923.91
2023-05-23T17:24:49.212Z,99915.16
2023-05-23T17:27:16.203Z,99926.41
2023-05-23T17:29:43.221Z,99924.06
2023-05-23T17:32:10.270Z,99919.72
2023-05-23T17:34:37.310Z,99912.00
2023-05-23T17:37:04.557Z,99921.03
2023-05-23T17:39:31.571Z,99926.88
2023-05-23T17:41:58.555Z,99917.84
2023-05-23T17:44:25.594Z,99932.66
2023-05-23T17:46:52.729Z,99932.41
2023-05-23T17:49:19.795Z,99931.56
2023-05-23T17:51:47.332Z,99933.97
2023-05-23T17:54:14.315Z,99936.91
2023-05-23T17:56:43.107Z,99937.94
2023-05-23T17:59:10.260Z,99947.88
2023-05-23T18:01:37.306Z,99950.72
2023-05-23T18:04:04.420Z,99947.03
2023-05-23T18:06:31.895Z,99944.88
2023-05-23T18:08:58.930Z,99946.00
2023-05-23T18:11:27.536Z,99949.28
2023-05-23T18:13:54.652Z,99956.34
2023-05-23T18:16:22.108Z,99961.72
2023-05-23T18:18:49.186Z,99949.63
2023-05-23T18:21:18.099Z,99959.03
2023-05-23T18:23:45.322Z,99957.28
2023-05-23T18:26:12.357Z,99949.19
2023-05-23T18:28:39.430Z,99955.81
2023-05-23T18:31:06.436Z,99961.31
2023-05-23T18:33:33.528Z,99961.66
2023-05-23T18:36:01.431Z,99952.72
2023-05-23T18:38:28.468Z,99957.94
2023-05-23T18:40:56.295Z,99954.94
2023-05-23T18:43:23.340Z,99959.06
2023-05-23T18:45:50.374Z,99964.47
2023-05-23T18:48:17.420Z,99965.34
2023-05-23T18:50:44.611Z,99961.56
2023-05-23T18:53:12.024Z,99961.91
2023-05-23T18:55:39.040Z,99960.13
2023-05-23T18:58:06.214Z,99975.38
2023-05-23T19:00:33.480Z,99982.25
2023-05-23T19:03:00.641Z,99984.53
2023-05-23T19:05:29.238Z,99987.59
2023-05-23T19:07:56.289Z,99988.25
2023-05-23T19:10:23.332Z,99998.41
2023-05-23T19:12:50.405Z,100002.28
2023-05-23T19:15:17.442Z,100012.19
2023-05-23T19:17:44.454Z,100018.81
2023-05-23T19:20:12.860Z,100010.59
2023-05-23T19:22:50.903Z,100023.19
2023-05-23T19:25:20.067Z,100026.59
2023-05-23T19:27:47.182Z,100033.75
2023-05-23T19:30:14.310Z,100034.50
2023-05-23T19:32:41.979Z,100041.44
2023-05-23T19:35:09.437Z,100042.94
2023-05-23T19:37:36.850Z,100042.63
2023-05-23T19:40:04.441Z,100047.06
2023-05-23T19:42:32.033Z,100051.31
2023-05-23T19:44:59.177Z,100049.78
2023-05-23T19:47:27.088Z,100054.25
2023-05-23T19:49:54.928Z,100054.94
2023-05-23T19:52:21.961Z,100056.69
2023-05-23T19:54:49.033Z,100063.59
2023-05-23T19:57:16.369Z,100058.69
2023-05-23T19:59:43.418Z,100067.72
2023-05-23T20:02:10.418Z,100071.09
2023-05-23T20:04:38.551Z,100069.31
2023-05-23T20:07:06.472Z,100070.03
2023-05-23T20:09:33.465Z,100078.81
2023-05-23T20:12:00.632Z,100084.31
2023-05-23T20:14:29.378Z,100089.81
2023-05-23T20:16:56.658Z,100093.69
2023-05-23T20:19:23.766Z,100096.69
2023-05-23T20:21:50.821Z,100098.06
2023-05-23T20:24:17.905Z,100101.06
2023-05-23T20:26:45.959Z,100101.38
2023-05-23T20:29:12.954Z,100109.16
2023-05-23T20:31:39.961Z,100105.13
2023-05-23T20:34:06.988Z,100121.00
2023-05-23T20:36:33.997Z,100115.31
2023-05-23T20:39:01.497Z,100112.31
2023-05-23T20:41:29.611Z,100114.72
2023-05-23T20:43:56.876Z,100120.81
2023-05-23T20:46:24.027Z,100117.81
2023-05-23T20:48:51.415Z,100115.03
2023-05-23T20:51:18.564Z,100117.38
2023-05-23T20:53:45.622Z,100123.22
2023-05-23T20:56:12.768Z,100130.97
2023-05-23T20:58:40.742Z,100121.75
2023-05-23T21:01:08.054Z,100130.28
2023-05-23T21:03:35.131Z,100138.63
2023-05-23T21:06:02.184Z,100138.88
2023-05-23T21:08:29.158Z,100145.34
2023-05-23T21:10:56.375Z,100142.69
2023-05-23T21:13:23.640Z,100144.56
2023-05-23T21:15:50.987Z,100147.06
2023-05-23T21:18:17.986Z,100144.19
2023-05-23T21:20:45.147Z,100150.22
2023-05-23T21:23:12.344Z,100150.03
2023-05-23T21:25:39.437Z,100149.41
2023-05-23T21:28:06.433Z,100154.41
2023-05-23T21:30:33.480Z,100157.53
2023-05-23T21:33:00.928Z,100151.50
2023-05-23T21:35:27.990Z,100161.66
2023-05-23T21:37:55.040Z,100162.06
2023-05-23T21:40:22.050Z,100154.22
2023-05-23T21:42:49.062Z,100161.69
2023-05-23T21:45:16.168Z,100160.03
2023-05-23T21:47:43.218Z,100162.91
2023-05-23T21:50:10.913Z,100158.75
2023-05-23T21:52:37.992Z,100165.41
2023-05-23T21:55:05.358Z,100172.81
2023-05-23T21:57:32.439Z,100169.53
2023-05-23T21:59:59.462Z,100176.97
2023-05-23T22:02:26.664Z,100179.06
2023-05-23T22:04:53.927Z,100169.13
2023-05-23T22:07:25.072Z,100172.00
2023-05-23T22:09:53.371Z,100174.69
2023-05-23T22:12:20.467Z,100181.75
2023-05-23T22:14:47.485Z,100176.97
2023-05-23T22:17:14.555Z,100180.72
2023-05-23T22:19:41.773Z,100182.34
2023-05-23T22:22:09.749Z,100184.00
2023-05-23T22:24:36.736Z,100181.31
2023-05-23T22:27:04.126Z,100175.94
2023-05-23T22:29:31.151Z,100178.63
2023-05-23T22:31:58.248Z,100180.28
2023-05-23T22:34:25.345Z,100181.09
2023-05-23T22:36:52.318Z,100176.53
2023-05-23T22:39:19.346Z,100181.91
2023-05-23T22:41:46.718Z,100182.75
2023-05-23T22:44:13.720Z,100185.66
2023-05-23T22:46:43.412Z,100187.28
2023-05-23T22:49:10.483Z,100187.28
2023-05-23T22:51:37.531Z,100185.66
2023-05-23T22:54:04.536Z,100189.97
2023-05-23T22:56:31.518Z,100193.50
2023-05-23T22:58:58.541Z,100191.84
2023-05-23T23:01:25.768Z,100186.69
2023-05-23T23:03:52.881Z,100180.28
2023-05-23T23:06:20.969Z,100188.34
2023-05-23T23:08:48.079Z,100184.81
2023-05-23T23:11:15.152Z,100191.03
2023-05-23T23:13:42.172Z,100191.03
2023-05-23T23:16:09.305Z,100191.03
2023-05-23T23:18:36.310Z,100186.47
2023-05-23T23:21:03.505Z,100187.28
2023-05-23T23:23:30.821Z,100192.66
2023-05-23T23:25:59.358Z,100183.78
2023-05-23T23:28:26.482Z,100185.66
2023-05-23T23:30:53.524Z,100190.81
2023-05-23T23:33:20.667Z,100196.19
2023-05-23T23:35:48.988Z,100187.28
2023-05-23T23:38:16.462Z,100189.97
2023-05-23T23:40:45.361Z,100187.09
2023-05-23T23:43:15.554Z,100188.13
2023-05-23T23:45:43.284Z,100189.97
2023-05-23T23:48:10.518Z,100192.66
2023-05-23T23:50:37.596Z,100182.34
2023-05-23T23:53:04.650Z,100183.41
2023-05-23T23:55:31.653Z,100182.97
2023-05-23T23:57:58.656Z,100178.03
